sensor_id;sensor_type;location;lat;lon;timestamp;P1;durP1;ratioP1;P2;durP2;ratioP2
62574;SDS011;53112;45.602;11.904;2023-05-07T00:00:21;4.47;;;3.35;;
62574;SDS011;53112;45.602;11.904;2023-05-07T00:02:47;4.53;;;3.30;;
62574;SDS011;53112;45.602;11.904;2023-05-07T00:05:13;6.13;;;3.80;;
62574;SDS011;53112;45.602;11.904;2023-05-07T00:07:39;4.68;;;3.33;;
62574;SDS011;53112;45.602;11.904;2023-05-07T00:10:05;5.30;;;3.65;;
62574;SDS011;53112;45.602;11.904;2023-05-07T00:12:32;4.80;;;3.40;;
62574;SDS011;53112;45.602;11.904;2023-05-07T00:15:01;4.72;;;3.38;;
62574;SDS011;53112;45.602;11.904;2023-05-07T00:17:29;4.88;;;3.33;;
62574;SDS011;53112;45.602;11.904;2023-05-07T00:19:55;4.22;;;3.20;;
62574;SDS011;53112;45.602;11.904;2023-05-07T00:22:21;4.22;;;3.20;;
62574;SDS011;53112;45.602;11.904;2023-05-07T00:24:47;4.93;;;3.17;;
62574;SDS011;53112;45.602;11.904;2023-05-07T00:27:12;4.95;;;3.50;;
62574;SDS011;53112;45.602;11.904;2023-05-07T00:29:38;4.22;;;3.30;;
62574;SDS011;53112;45.602;11.904;2023-05-07T00:32:04;4.80;;;3.60;;
62574;SDS011;53112;45.602;11.904;2023-05-07T00:34:30;4.68;;;3.30;;
62574;SDS011;53112;45.602;11.904;2023-05-07T00:36:56;4.65;;;3.50;;
62574;SDS011;53112;45.602;11.904;2023-05-07T00:39:22;4.80;;;3.55;;
62574;SDS011;53112;45.602;11.904;2023-05-07T00:41:48;4.70;;;3.17;;
62574;SDS011;53112;45.602;11.904;2023-05-07T00:44:13;4.47;;;3.40;;
62574;SDS011;53112;45.602;11.904;2023-05-07T00:46:39;4.50;;;3.30;;
62574;SDS011;53112;45.602;11.904;2023-05-07T00:49:06;5.60;;;3.40;;
62574;SDS011;53112;45.602;11.904;2023-05-07T00:51:32;5.18;;;3.58;;
62574;SDS011;53112;45.602;11.904;2023-05-07T00:53:59;4.40;;;3.30;;
62574;SDS011;53112;45.602;11.904;2023-05-07T00:56:26;4.85;;;3.38;;
62574;SDS011;53112;45.602;11.904;2023-05-07T00:58:53;3.40;;;2.90;;
62574;SDS011;53112;45.602;11.904;2023-05-07T01:01:19;4.82;;;3.30;;
62574;SDS011;53112;45.602;11.904;2023-05-07T01:03:45;4.57;;;3.28;;
62574;SDS011;53112;45.602;11.904;2023-05-07T01:06:11;3.78;;;3.10;;
62574;SDS011;53112;45.602;11.904;2023-05-07T01:08:41;4.82;;;3.17;;
62574;SDS011;53112;45.602;11.904;2023-05-07T01:11:07;3.88;;;3.25;;
62574;SDS011;53112;45.602;11.904;2023-05-07T01:13:35;5.93;;;3.40;;
62574;SDS011;53112;45.602;11.904;2023-05-07T01:16:02;4.00;;;3.10;;
62574;SDS011;53112;45.602;11.904;2023-05-07T01:18:29;5.47;;;3.50;;
62574;SDS011;53112;45.602;11.904;2023-05-07T01:20:58;4.95;;;3.25;;
62574;SDS011;53112;45.602;11.904;2023-05-07T01:23:25;4.93;;;3.30;;
62574;SDS011;53112;45.602;11.904;2023-05-07T01:25:53;4.88;;;3.40;;
62574;SDS011;53112;45.602;11.904;2023-05-07T01:28:19;5.40;;;3.65;;
62574;SDS011;53112;45.602;11.904;2023-05-07T01:30:47;5.57;;;3.50;;
62574;SDS011;53112;45.602;11.904;2023-05-07T01:33:18;4.70;;;3.60;;
62574;SDS011;53112;45.602;11.904;2023-05-07T01:35:47;4.72;;;3.28;;
62574;SDS011;53112;45.602;11.904;2023-05-07T01:38:16;5.10;;;3.20;;
62574;SDS011;53112;45.602;11.904;2023-05-07T01:40:43;6.20;;;3.47;;
62574;SDS011;53112;45.602;11.904;2023-05-07T01:43:11;5.13;;;3.60;;
62574;SDS011;53112;45.602;11.904;2023-05-07T01:45:37;4.40;;;3.45;;
62574;SDS011;53112;45.602;11.904;2023-05-07T01:48:06;5.00;;;3.55;;
62574;SDS011;53112;45.602;11.904;2023-05-07T01:50:35;4.68;;;3.50;;
62574;SDS011;53112;45.602;11.904;2023-05-07T01:53:02;6.53;;;3.67;;
62574;SDS011;53112;45.602;11.904;2023-05-07T01:55:28;4.85;;;3.50;;
62574;SDS011;53112;45.602;11.904;2023-05-07T01:57:54;5.22;;;3.42;;
62574;SDS011;53112;45.602;11.904;2023-05-07T02:00:20;4.53;;;3.28;;
62574;SDS011;53112;45.602;11.904;2023-05-07T02:02:46;5.15;;;3.80;;
62574;SDS011;53112;45.602;11.904;2023-05-07T02:05:12;4.05;;;3.20;;
62574;SDS011;53112;45.602;11.904;2023-05-07T02:07:38;4.72;;;3.40;;
62574;SDS011;53112;45.602;11.904;2023-05-07T02:10:04;4.38;;;3.38;;
62574;SDS011;53112;45.602;11.904;2023-05-07T02:12:31;3.65;;;3.20;;
62574;SDS011;53112;45.602;11.904;2023-05-07T02:14:57;3.88;;;3.17;;
62574;SDS011;53112;45.602;11.904;2023-05-07T02:17:23;4.18;;;3.22;;
62574;SDS011;53112;45.602;11.904;2023-05-07T02:19:49;3.85;;;3.10;;
62574;SDS011;53112;45.602;11.904;2023-05-07T02:22:15;4.28;;;3.20;;
62574;SDS011;53112;45.602;11.904;2023-05-07T02:24:41;4.47;;;3.42;;
62574;SDS011;53112;45.602;11.904;2023-05-07T02:27:07;5.18;;;3.47;;
62574;SDS011;53112;45.602;11.904;2023-05-07T02:29:33;5.35;;;3.40;;
62574;SDS011;53112;45.602;11.904;2023-05-07T02:31:59;5.15;;;3.50;;
62574;SDS011;53112;45.602;11.904;2023-05-07T02:34:27;4.40;;;3.45;;
62574;SDS011;53112;45.602;11.904;2023-05-07T02:36:53;4.13;;;3.08;;
62574;SDS011;53112;45.602;11.904;2023-05-07T02:39:21;5.60;;;3.60;;
62574;SDS011;53112;45.602;11.904;2023-05-07T02:41:46;4.75;;;3.47;;
62574;SDS011;53112;45.602;11.904;2023-05-07T02:44:13;5.85;;;3.40;;
62574;SDS011;53112;45.602;11.904;2023-05-07T02:46:38;5.85;;;3.20;;
62574;SDS011;53112;45.602;11.904;2023-05-07T02:49:04;4.20;;;3.40;;
62574;SDS011;53112;45.602;11.904;2023-05-07T02:51:31;4.43;;;3.15;;
62574;SDS011;53112;45.602;11.904;2023-05-07T02:53:57;3.75;;;2.90;;
62574;SDS011;53112;45.602;11.904;2023-05-07T02:56:26;5.47;;;3.22;;
62574;SDS011;53112;45.602;11.904;2023-05-07T02:58:52;3.97;;;3.10;;
62574;SDS011;53112;45.602;11.904;2023-05-07T03:01:18;3.65;;;3.10;;
62574;SDS011;53112;45.602;11.904;2023-05-07T03:03:43;4.82;;;3.20;;
62574;SDS011;53112;45.602;11.904;2023-05-07T03:06:09;4.72;;;3.45;;
62574;SDS011;53112;45.602;11.904;2023-05-07T03:08:36;4.13;;;3.47;;
62574;SDS011;53112;45.602;11.904;2023-05-07T03:11:02;5.40;;;3.50;;
62574;SDS011;53112;45.602;11.904;2023-05-07T03:13:28;5.28;;;3.53;;
62574;SDS011;53112;45.602;11.904;2023-05-07T03:15:53;4.43;;;3.35;;
62574;SDS011;53112;45.602;11.904;2023-05-07T03:18:20;4.43;;;3.20;;
62574;SDS011;53112;45.602;11.904;2023-05-07T03:20:46;5.95;;;3.53;;
62574;SDS011;53112;45.602;11.904;2023-05-07T03:23:13;5.07;;;3.38;;
62574;SDS011;53112;45.602;11.904;2023-05-07T03:25:39;4.35;;;3.50;;
62574;SDS011;53112;45.602;11.904;2023-05-07T03:28:04;4.82;;;3.60;;
62574;SDS011;53112;45.602;11.904;2023-05-07T03:30:30;5.28;;;3.60;;
62574;SDS011;53112;45.602;11.904;2023-05-07T03:32:57;4.55;;;3.40;;
62574;SDS011;53112;45.602;11.904;2023-05-07T03:35:22;5.35;;;3.78;;
62574;SDS011;53112;45.602;11.904;2023-05-07T03:37:48;4.60;;;3.67;;
62574;SDS011;53112;45.602;11.904;2023-05-07T03:40:14;4.38;;;3.17;;
62574;SDS011;53112;45.602;11.904;2023-05-07T03:42:40;4.60;;;3.40;;
62574;SDS011;53112;45.602;11.904;2023-05-07T03:45:06;4.97;;;3.38;;
62574;SDS011;53112;45.602;11.904;2023-05-07T03:47:33;4.45;;;3.40;;
62574;SDS011;53112;45.602;11.904;2023-05-07T03:49:59;5.20;;;3.50;;
62574;SDS011;53112;45.602;11.904;2023-05-07T03:52:24;4.05;;;3.22;;
62574;SDS011;53112;45.602;11.904;2023-05-07T03:54:52;4.55;;;3.33;;
62574;SDS011;53112;45.602;11.904;2023-05-07T03:57:18;3.70;;;3.30;;
62574;SDS011;53112;45.602;11.904;2023-05-07T03:59:45;4.75;;;3.60;;
62574;SDS011;53112;45.602;11.904;2023-05-07T04:02:11;5.22;;;3.38;;
62574;SDS011;53112;45.602;11.904;2023-05-07T04:04:37;4.18;;;3.45;;
62574;SDS011;53112;45.602;11.904;2023-05-07T04:07:03;4.45;;;3.47;;
62574;SDS011;53112;45.602;11.904;2023-05-07T04:09:29;4.35;;;3.42;;
62574;SDS011;53112;45.602;11.904;2023-05-07T04:11:55;4.75;;;3.42;;
62574;SDS011;53112;45.602;11.904;2023-05-07T04:14:21;4.38;;;3.20;;
62574;SDS011;53112;45.602;11.904;2023-05-07T04:16:47;5.55;;;3.22;;
62574;SDS011;53112;45.602;11.904;2023-05-07T04:19:13;4.68;;;3.10;;
62574;SDS011;53112;45.602;11.904;2023-05-07T04:21:39;5.65;;;3.30;;
62574;SDS011;53112;45.602;11.904;2023-05-07T04:24:05;4.63;;;3.53;;
62574;SDS011;53112;45.602;11.904;2023-05-07T04:26:32;4.30;;;3.28;;
62574;SDS011;53112;45.602;11.904;2023-05-07T04:28:57;4.20;;;3.33;;
62574;SDS011;53112;45.602;11.904;2023-05-07T04:31:24;5.10;;;3.50;;
62574;SDS011;53112;45.602;11.904;2023-05-07T04:33:50;5.15;;;3.38;;
62574;SDS011;53112;45.602;11.904;2023-05-07T04:36:16;4.60;;;3.60;;
62574;SDS011;53112;45.602;11.904;2023-05-07T04:38:42;5.05;;;3.20;;
62574;SDS011;53112;45.602;11.904;2023-05-07T04:41:08;4.35;;;3.33;;
62574;SDS011;53112;45.602;11.904;2023-05-07T04:43:35;4.63;;;3.50;;
62574;SDS011;53112;45.602;11.904;2023-05-07T04:46:01;4.82;;;3.40;;
62574;SDS011;53112;45.602;11.904;2023-05-07T04:48:26;5.22;;;3.47;;
62574;SDS011;53112;45.602;11.904;2023-05-07T04:50:54;4.43;;;3.40;;
62574;SDS011;53112;45.602;11.904;2023-05-07T04:53:20;4.18;;;3.25;;
62574;SDS011;53112;45.602;11.904;2023-05-07T04:55:46;5.00;;;3.20;;
62574;SDS011;53112;45.602;11.904;2023-05-07T04:58:12;5.38;;;3.67;;
62574;SDS011;53112;45.602;11.904;2023-05-07T05:00:39;5.88;;;3.60;;
62574;SDS011;53112;45.602;11.904;2023-05-07T06:56:25;8.43;;;5.38;;
62574;SDS011;53112;45.602;11.904;2023-05-07T06:58:51;8.77;;;6.38;;
62574;SDS011;53112;45.602;11.904;2023-05-07T07:01:17;6.97;;;4.97;;
62574;SDS011;53112;45.602;11.904;2023-05-07T07:03:43;7.85;;;5.75;;
62574;SDS011;53112;45.602;11.904;2023-05-07T07:06:09;6.07;;;4.72;;
62574;SDS011;53112;45.602;11.904;2023-05-07T07:10:16;5.97;;;4.20;;
62574;SDS011;53112;45.602;11.904;2023-05-07T07:12:41;6.35;;;4.35;;
62574;SDS011;53112;45.602;11.904;2023-05-07T07:15:09;6.65;;;4.80;;
62574;SDS011;53112;45.602;11.904;2023-05-07T07:17:35;6.88;;;4.55;;
62574;SDS011;53112;45.602;11.904;2023-05-07T07:20:01;6.88;;;5.00;;
62574;SDS011;53112;45.602;11.904;2023-05-07T07:22:28;8.75;;;5.00;;
62574;SDS011;53112;45.602;11.904;2023-05-07T07:24:54;8.55;;;5.45;;
62574;SDS011;53112;45.602;11.904;2023-05-07T07:27:19;7.00;;;4.78;;
62574;SDS011;53112;45.602;11.904;2023-05-07T07:29:45;6.45;;;4.85;;
62574;SDS011;53112;45.602;11.904;2023-05-07T07:32:11;7.22;;;5.03;;
62574;SDS011;53112;45.602;11.904;2023-05-07T07:34:37;6.32;;;4.72;;
62574;SDS011;53112;45.602;11.904;2023-05-07T07:37:03;6.57;;;4.70;;
62574;SDS011;53112;45.602;11.904;2023-05-07T07:39:34;6.50;;;4.93;;
62574;SDS011;53112;45.602;11.904;2023-05-07T07:44:28;7.20;;;5.10;;
62574;SDS011;53112;45.602;11.904;2023-05-07T07:46:54;7.60;;;4.85;;
62574;SDS011;53112;45.602;11.904;2023-05-07T07:49:19;5.63;;;4.28;;
62574;SDS011;53112;45.602;11.904;2023-05-07T07:51:45;8.63;;;5.00;;
62574;SDS011;53112;45.602;11.904;2023-05-07T07:54:11;9.55;;;5.13;;
62574;SDS011;53112;45.602;11.904;2023-05-07T07:56:37;8.20;;;5.40;;
62574;SDS011;53112;45.602;11.904;2023-05-07T07:59:03;6.22;;;4.55;;
62574;SDS011;53112;45.602;11.904;2023-05-07T08:01:29;6.95;;;4.72;;
62574;SDS011;53112;45.602;11.904;2023-05-07T08:03:55;8.38;;;5.63;;
62574;SDS011;53112;45.602;11.904;2023-05-07T08:06:23;7.07;;;4.20;;
62574;SDS011;53112;45.602;11.904;2023-05-07T08:08:51;6.07;;;4.10;;
62574;SDS011;53112;45.602;11.904;2023-05-07T08:11:17;5.88;;;4.03;;
62574;SDS011;53112;45.602;11.904;2023-05-07T08:13:42;6.28;;;4.20;;
62574;SDS011;53112;45.602;11.904;2023-05-07T08:16:08;6.32;;;4.20;;
62574;SDS011;53112;45.602;11.904;2023-05-07T08:18:34;5.90;;;3.80;;
62574;SDS011;53112;45.602;11.904;2023-05-07T08:21:00;5.78;;;3.67;;
62574;SDS011;53112;45.602;11.904;2023-05-07T08:23:26;6.35;;;4.28;;
62574;SDS011;53112;45.602;11.904;2023-05-07T08:25:52;9.68;;;6.22;;
62574;SDS011;53112;45.602;11.904;2023-05-07T08:28:18;6.35;;;4.38;;
62574;SDS011;53112;45.602;11.904;2023-05-07T08:31:43;5.65;;;4.00;;
62574;SDS011;53112;45.602;11.904;2023-05-07T08:34:09;5.28;;;3.78;;
62574;SDS011;53112;45.602;11.904;2023-05-07T08:36:35;7.25;;;4.72;;
62574;SDS011;53112;45.602;11.904;2023-05-07T08:39:00;7.50;;;4.07;;
62574;SDS011;53112;45.602;11.904;2023-05-07T08:41:27;8.02;;;5.00;;
62574;SDS011;53112;45.602;11.904;2023-05-07T08:43:53;5.40;;;4.03;;
62574;SDS011;53112;45.602;11.904;2023-05-07T08:46:22;6.00;;;4.07;;
62574;SDS011;53112;45.602;11.904;2023-05-07T08:48:50;4.63;;;3.58;;
62574;SDS011;53112;45.602;11.904;2023-05-07T08:51:18;10.98;;;6.45;;
62574;SDS011;53112;45.602;11.904;2023-05-07T08:53:45;7.07;;;4.53;;
62574;SDS011;53112;45.602;11.904;2023-05-07T08:56:13;6.68;;;4.50;;
62574;SDS011;53112;45.602;11.904;2023-05-07T08:58:43;5.40;;;3.70;;
62574;SDS011;53112;45.602;11.904;2023-05-07T09:01:10;6.82;;;4.03;;
62574;SDS011;53112;45.602;11.904;2023-05-07T09:03:39;5.95;;;4.40;;
62574;SDS011;53112;45.602;11.904;2023-05-07T09:06:06;5.50;;;3.47;;
62574;SDS011;53112;45.602;11.904;2023-05-07T09:08:32;7.90;;;3.38;;
62574;SDS011;53112;45.602;11.904;2023-05-07T09:10:59;6.30;;;3.60;;
62574;SDS011;53112;45.602;11.904;2023-05-07T09:13:25;5.95;;;4.03;;
62574;SDS011;53112;45.602;11.904;2023-05-07T09:15:52;5.32;;;3.72;;
62574;SDS011;53112;45.602;11.904;2023-05-07T09:18:18;6.07;;;3.60;;
62574;SDS011;53112;45.602;11.904;2023-05-07T09:20:44;6.45;;;3.65;;
62574;SDS011;53112;45.602;11.904;2023-05-07T09:23:10;4.78;;;3.50;;
62574;SDS011;53112;45.602;11.904;2023-05-07T09:25:36;5.65;;;3.70;;
62574;SDS011;53112;45.602;11.904;2023-05-07T09:28:04;6.15;;;3.70;;
62574;SDS011;53112;45.602;11.904;2023-05-07T09:30:35;6.05;;;3.70;;
62574;SDS011;53112;45.602;11.904;2023-05-07T09:33:02;6.93;;;4.70;;
62574;SDS011;53112;45.602;11.904;2023-05-07T09:35:29;10.65;;;4.05;;
62574;SDS011;53112;45.602;11.904;2023-05-07T09:37:56;4.18;;;3.50;;
62574;SDS011;53112;45.602;11.904;2023-05-07T09:40:23;5.57;;;3.90;;
62574;SDS011;53112;45.602;11.904;2023-05-07T09:42:51;6.20;;;4.28;;
62574;SDS011;53112;45.602;11.904;2023-05-07T09:45:38;6.07;;;4.00;;
62574;SDS011;53112;45.602;11.904;2023-05-07T09:48:04;7.97;;;4.50;;
62574;SDS011;53112;45.602;11.904;2023-05-07T09:50:44;5.78;;;4.20;;
62574;SDS011;53112;45.602;11.904;2023-05-07T09:53:16;5.25;;;3.80;;
62574;SDS011;53112;45.602;11.904;2023-05-07T09:55:43;8.35;;;5.97;;
62574;SDS011;53112;45.602;11.904;2023-05-07T09:58:10;7.72;;;5.28;;
62574;SDS011;53112;45.602;11.904;2023-05-07T10:00:39;7.10;;;5.07;;
62574;SDS011;53112;45.602;11.904;2023-05-07T10:03:06;9.50;;;5.50;;
62574;SDS011;53112;45.602;11.904;2023-05-07T10:05:33;8.38;;;5.20;;
62574;SDS011;53112;45.602;11.904;2023-05-07T10:08:00;8.60;;;5.60;;
62574;SDS011;53112;45.602;11.904;2023-05-07T10:10:27;7.82;;;5.25;;
62574;SDS011;53112;45.602;11.904;2023-05-07T10:12:54;7.70;;;5.15;;
62574;SDS011;53112;45.602;11.904;2023-05-07T10:15:20;9.30;;;6.30;;
62574;SDS011;53112;45.602;11.904;2023-05-07T10:17:47;8.88;;;5.93;;
62574;SDS011;53112;45.602;11.904;2023-05-07T10:20:14;7.72;;;5.90;;
62574;SDS011;53112;45.602;11.904;2023-05-07T10:22:44;10.68;;;7.30;;
62574;SDS011;53112;45.602;11.904;2023-05-07T10:25:22;7.63;;;5.75;;
62574;SDS011;53112;45.602;11.904;2023-05-07T10:27:51;9.75;;;6.25;;
62574;SDS011;53112;45.602;11.904;2023-05-07T10:33:01;9.55;;;6.32;;
62574;SDS011;53112;45.602;11.904;2023-05-07T10:35:37;8.98;;;7.15;;
62574;SDS011;53112;45.602;11.904;2023-05-07T10:38:07;9.73;;;6.47;;
62574;SDS011;53112;45.602;11.904;2023-05-07T10:40:34;10.95;;;6.10;;
62574;SDS011;53112;45.602;11.904;2023-05-07T10:43:01;7.93;;;6.28;;
62574;SDS011;53112;45.602;11.904;2023-05-07T10:45:30;8.48;;;6.68;;
62574;SDS011;53112;45.602;11.904;2023-05-07T10:48:15;7.65;;;5.65;;
62574;SDS011;53112;45.602;11.904;2023-05-07T10:50:44;6.60;;;5.00;;
62574;SDS011;53112;45.602;11.904;2023-05-07T10:55:42;7.80;;;6.35;;
62574;SDS011;53112;45.602;11.904;2023-05-07T11:00:49;11.15;;;5.47;;
62574;SDS011;53112;45.602;11.904;2023-05-07T11:03:16;7.15;;;5.00;;
62574;SDS011;53112;45.602;11.904;2023-05-07T11:05:43;6.70;;;4.47;;
62574;SDS011;53112;45.602;11.904;2023-05-07T11:08:09;6.65;;;5.05;;
62574;SDS011;53112;45.602;11.904;2023-05-07T11:16:16;8.18;;;5.82;;
62574;SDS011;53112;45.602;11.904;2023-05-07T11:18:46;9.00;;;5.55;;
62574;SDS011;53112;45.602;11.904;2023-05-07T11:23:57;8.30;;;5.03;;
62574;SDS011;53112;45.602;11.904;2023-05-07T11:26:23;6.85;;;4.93;;
62574;SDS011;53112;45.602;11.904;2023-05-07T11:28:50;7.38;;;5.20;;
62574;SDS011;53112;45.602;11.904;2023-05-07T11:31:21;7.22;;;4.88;;
62574;SDS011;53112;45.602;11.904;2023-05-07T11:33:49;7.68;;;5.03;;
62574;SDS011;53112;45.602;11.904;2023-05-07T11:36:15;7.93;;;4.90;;
62574;SDS011;53112;45.602;11.904;2023-05-07T11:38:41;8.88;;;4.88;;
62574;SDS011;53112;45.602;11.904;2023-05-07T11:41:07;6.25;;;4.53;;
62574;SDS011;53112;45.602;11.904;2023-05-07T11:43:33;8.38;;;5.20;;
62574;SDS011;53112;45.602;11.904;2023-05-07T11:46:11;8.23;;;6.32;;
62574;SDS011;53112;45.602;11.904;2023-05-07T11:48:38;9.55;;;7.45;;
62574;SDS011;53112;45.602;11.904;2023-05-07T11:51:05;10.02;;;7.05;;
62574;SDS011;53112;45.602;11.904;2023-05-07T11:53:41;9.23;;;7.03;;
62574;SDS011;53112;45.602;11.904;2023-05-07T11:56:08;7.45;;;5.43;;
62574;SDS011;53112;45.602;11.904;2023-05-07T11:58:39;17.13;;;13.65;;
62574;SDS011;53112;45.602;11.904;2023-05-07T12:01:07;9.15;;;6.45;;
62574;SDS011;53112;45.602;11.904;2023-05-07T12:03:34;20.10;;;11.52;;
62574;SDS011;53112;45.602;11.904;2023-05-07T12:08:04;8.93;;;5.55;;
62574;SDS011;53112;45.602;11.904;2023-05-07T12:10:30;8.55;;;5.88;;
62574;SDS011;53112;45.602;11.904;2023-05-07T12:12:56;7.15;;;5.35;;
62574;SDS011;53112;45.602;11.904;2023-05-07T12:15:23;8.23;;;5.80;;
62574;SDS011;53112;45.602;11.904;2023-05-07T12:17:48;8.15;;;6.60;;
62574;SDS011;53112;45.602;11.904;2023-05-07T12:20:15;6.03;;;4.53;;
62574;SDS011;53112;45.602;11.904;2023-05-07T12:22:42;8.80;;;5.93;;
62574;SDS011;53112;45.602;11.904;2023-05-07T12:25:09;9.45;;;5.18;;
62574;SDS011;53112;45.602;11.904;2023-05-07T12:27:36;7.95;;;6.13;;
62574;SDS011;53112;45.602;11.904;2023-05-07T12:30:04;8.45;;;5.30;;
62574;SDS011;53112;45.602;11.904;2023-05-07T12:32:30;8.15;;;6.00;;
62574;SDS011;53112;45.602;11.904;2023-05-07T12:35:01;7.40;;;5.60;;
62574;SDS011;53112;45.602;11.904;2023-05-07T12:37:27;9.95;;;5.95;;
62574;SDS011;53112;45.602;11.904;2023-05-07T12:42:35;8.40;;;6.00;;
62574;SDS011;53112;45.602;11.904;2023-05-07T12:47:38;8.02;;;5.90;;
62574;SDS011;53112;45.602;11.904;2023-05-07T12:50:05;7.63;;;5.35;;
62574;SDS011;53112;45.602;11.904;2023-05-07T12:52:32;7.70;;;5.28;;
62574;SDS011;53112;45.602;11.904;2023-05-07T12:55:04;8.32;;;5.75;;
62574;SDS011;53112;45.602;11.904;2023-05-07T12:57:34;9.23;;;6.43;;
62574;SDS011;53112;45.602;11.904;2023-05-07T13:00:06;8.32;;;6.50;;
62574;SDS011;53112;45.602;11.904;2023-05-07T13:02:34;9.07;;;6.60;;
62574;SDS011;53112;45.602;11.904;2023-05-07T13:05:03;10.05;;;7.60;;
62574;SDS011;53112;45.602;11.904;2023-05-07T13:07:29;7.25;;;5.55;;
62574;SDS011;53112;45.602;11.904;2023-05-07T13:09:55;9.90;;;7.07;;
62574;SDS011;53112;45.602;11.904;2023-05-07T13:12:21;8.57;;;6.20;;
62574;SDS011;53112;45.602;11.904;2023-05-07T13:14:47;7.25;;;5.40;;
62574;SDS011;53112;45.602;11.904;2023-05-07T13:17:13;9.38;;;7.57;;
62574;SDS011;53112;45.602;11.904;2023-05-07T13:19:39;6.65;;;5.38;;
62574;SDS011;53112;45.602;11.904;2023-05-07T13:22:05;10.63;;;8.60;;
62574;SDS011;53112;45.602;11.904;2023-05-07T13:24:30;10.93;;;7.97;;
62574;SDS011;53112;45.602;11.904;2023-05-07T13:26:56;9.57;;;7.20;;
62574;SDS011;53112;45.602;11.904;2023-05-07T13:29:22;10.60;;;8.45;;
62574;SDS011;53112;45.602;11.904;2023-05-07T13:31:54;7.50;;;6.38;;
62574;SDS011;53112;45.602;11.904;2023-05-07T13:34:20;8.35;;;6.05;;
62574;SDS011;53112;45.602;11.904;2023-05-07T13:36:46;7.90;;;6.13;;
62574;SDS011;53112;45.602;11.904;2023-05-07T13:39:12;11.15;;;7.55;;
62574;SDS011;53112;45.602;11.904;2023-05-07T13:41:38;9.25;;;7.30;;
62574;SDS011;53112;45.602;11.904;2023-05-07T13:44:04;8.85;;;7.10;;
62574;SDS011;53112;45.602;11.904;2023-05-07T13:46:30;11.60;;;8.73;;
62574;SDS011;53112;45.602;11.904;2023-05-07T13:48:56;9.77;;;7.78;;
62574;SDS011;53112;45.602;11.904;2023-05-07T13:51:22;10.50;;;8.50;;
62574;SDS011;53112;45.602;11.904;2023-05-07T13:53:48;12.50;;;9.27;;
62574;SDS011;53112;45.602;11.904;2023-05-07T13:56:14;7.97;;;6.88;;
62574;SDS011;53112;45.602;11.904;2023-05-07T13:58:40;10.07;;;7.55;;
62574;SDS011;53112;45.602;11.904;2023-05-07T14:01:06;8.65;;;6.72;;
62574;SDS011;53112;45.602;11.904;2023-05-07T14:03:32;9.60;;;7.22;;
62574;SDS011;53112;45.602;11.904;2023-05-07T14:05:59;9.85;;;7.63;;
62574;SDS011;53112;45.602;11.904;2023-05-07T14:08:26;10.82;;;9.50;;
62574;SDS011;53112;45.602;11.904;2023-05-07T14:10:53;10.02;;;8.15;;
62574;SDS011;53112;45.602;11.904;2023-05-07T14:13:19;10.13;;;7.28;;
62574;SDS011;53112;45.602;11.904;2023-05-07T14:15:45;11.45;;;8.63;;
62574;SDS011;53112;45.602;11.904;2023-05-07T14:18:14;10.52;;;8.32;;
62574;SDS011;53112;45.602;11.904;2023-05-07T14:20:41;11.95;;;7.60;;
62574;SDS011;53112;45.602;11.904;2023-05-07T14:23:11;15.45;;;12.82;;
62574;SDS011;53112;45.602;11.904;2023-05-07T14:25:37;9.60;;;7.32;;
62574;SDS011;53112;45.602;11.904;2023-05-07T14:28:03;10.80;;;8.93;;
62574;SDS011;53112;45.602;11.904;2023-05-07T14:30:29;10.57;;;8.68;;
62574;SDS011;53112;45.602;11.904;2023-05-07T14:32:55;11.65;;;8.13;;
62574;SDS011;53112;45.602;11.904;2023-05-07T14:35:21;13.43;;;8.40;;
62574;SDS011;53112;45.602;11.904;2023-05-07T14:37:47;11.65;;;8.63;;
62574;SDS011;53112;45.602;11.904;2023-05-07T14:40:13;9.15;;;7.10;;
62574;SDS011;53112;45.602;11.904;2023-05-07T14:42:39;11.50;;;9.40;;
62574;SDS011;53112;45.602;11.904;2023-05-07T14:45:06;8.20;;;6.50;;
62574;SDS011;53112;45.602;11.904;2023-05-07T14:47:33;11.43;;;7.90;;
62574;SDS011;53112;45.602;11.904;2023-05-07T14:49:59;12.40;;;7.70;;
62574;SDS011;53112;45.602;11.904;2023-05-07T14:52:26;11.10;;;8.82;;
62574;SDS011;53112;45.602;11.904;2023-05-07T14:54:52;11.90;;;9.02;;
62574;SDS011;53112;45.602;11.904;2023-05-07T14:57:18;12.73;;;8.30;;
62574;SDS011;53112;45.602;11.904;2023-05-07T14:59:44;9.98;;;7.72;;
62574;SDS011;53112;45.602;11.904;2023-05-07T15:02:12;11.00;;;7.40;;
62574;SDS011;53112;45.602;11.904;2023-05-07T15:04:38;10.45;;;7.55;;
62574;SDS011;53112;45.602;11.904;2023-05-07T15:07:13;11.88;;;7.80;;
62574;SDS011;53112;45.602;11.904;2023-05-07T15:09:43;9.07;;;7.70;;
62574;SDS011;53112;45.602;11.904;2023-05-07T15:12:10;8.75;;;7.28;;
62574;SDS011;53112;45.602;11.904;2023-05-07T15:14:37;11.45;;;8.88;;
62574;SDS011;53112;45.602;11.904;2023-05-07T15:17:03;9.32;;;7.38;;
62574;SDS011;53112;45.602;11.904;2023-05-07T15:19:29;11.38;;;7.93;;
62574;SDS011;53112;45.602;11.904;2023-05-07T15:21:59;9.63;;;7.47;;
62574;SDS011;53112;45.602;11.904;2023-05-07T15:24:29;9.80;;;7.47;;
62574;SDS011;53112;45.602;11.904;2023-05-07T15:26:55;12.65;;;7.72;;
62574;SDS011;53112;45.602;11.904;2023-05-07T15:29:21;9.73;;;7.47;;
62574;SDS011;53112;45.602;11.904;2023-05-07T15:31:47;8.45;;;6.82;;
62574;SDS011;53112;45.602;11.904;2023-05-07T15:34:13;7.70;;;6.63;;
62574;SDS011;53112;45.602;11.904;2023-05-07T15:36:42;10.13;;;8.05;;
62574;SDS011;53112;45.602;11.904;2023-05-07T15:39:08;8.85;;;6.60;;
62574;SDS011;53112;45.602;11.904;2023-05-07T15:41:35;10.52;;;7.93;;
62574;SDS011;53112;45.602;11.904;2023-05-07T15:44:03;8.70;;;7.35;;
62574;SDS011;53112;45.602;11.904;2023-05-07T15:46:29;9.43;;;6.82;;
62574;SDS011;53112;45.602;11.904;2023-05-07T15:48:55;9.90;;;7.20;;
62574;SDS011;53112;45.602;11.904;2023-05-07T15:51:22;10.60;;;7.93;;
62574;SDS011;53112;45.602;11.904;2023-05-07T15:53:48;9.63;;;7.00;;
62574;SDS011;53112;45.602;11.904;2023-05-07T15:56:14;9.05;;;7.30;;
62574;SDS011;53112;45.602;11.904;2023-05-07T15:58:40;11.48;;;8.35;;
62574;SDS011;53112;45.602;11.904;2023-05-07T16:01:06;10.25;;;8.23;;
62574;SDS011;53112;45.602;11.904;2023-05-07T16:03:32;12.95;;;9.32;;
62574;SDS011;53112;45.602;11.904;2023-05-07T16:06:01;11.27;;;9.15;;
62574;SDS011;53112;45.602;11.904;2023-05-07T16:08:27;12.45;;;8.02;;
62574;SDS011;53112;45.602;11.904;2023-05-07T16:10:53;10.75;;;8.20;;
62574;SDS011;53112;45.602;11.904;2023-05-07T16:13:20;10.80;;;8.45;;
62574;SDS011;53112;45.602;11.904;2023-05-07T16:15:48;11.38;;;8.90;;
62574;SDS011;53112;45.602;11.904;2023-05-07T16:18:14;11.60;;;8.70;;
62574;SDS011;53112;45.602;11.904;2023-05-07T16:20:41;10.02;;;8.40;;
62574;SDS011;53112;45.602;11.904;2023-05-07T16:23:08;11.77;;;8.13;;
62574;SDS011;53112;45.602;11.904;2023-05-07T16:25:34;9.55;;;8.40;;
62574;SDS011;53112;45.602;11.904;2023-05-07T16:28:00;9.32;;;7.55;;
62574;SDS011;53112;45.602;11.904;2023-05-07T16:30:26;10.82;;;8.48;;
62574;SDS011;53112;45.602;11.904;2023-05-07T16:32:52;10.18;;;8.40;;
62574;SDS011;53112;45.602;11.904;2023-05-07T16:35:18;11.43;;;8.63;;
62574;SDS011;53112;45.602;11.904;2023-05-07T16:37:44;14.45;;;10.07;;
62574;SDS011;53112;45.602;11.904;2023-05-07T16:40:10;10.43;;;8.30;;
62574;SDS011;53112;45.602;11.904;2023-05-07T16:42:37;8.45;;;5.97;;
62574;SDS011;53112;45.602;11.904;2023-05-07T16:45:04;7.05;;;4.95;;
62574;SDS011;53112;45.602;11.904;2023-05-07T16:47:31;11.30;;;7.65;;
62574;SDS011;53112;45.602;11.904;2023-05-07T16:49:57;6.25;;;4.80;;
62574;SDS011;53112;45.602;11.904;2023-05-07T16:52:25;6.40;;;5.00;;